createdAt,value
2023-06-11T00:01:50.458Z,27.18
2023-06-11T00:04:26.910Z,26.93
2023-06-11T00:06:57.630Z,27.17
2023-06-11T00:09:28.198Z,26.98
2023-06-11T00:11:56.546Z,27.25
2023-06-11T00:14:27.374Z,27.13
2023-06-11T00:16:58.391Z,27.24
2023-06-11T00:19:30.350Z,27.11
2023-06-11T00:22:03.570Z,26.92
2023-06-11T00:24:31.333Z,26.98
2023-06-11T00:27:03.156Z,26.93
2023-06-11T00:29:31.594Z,27.09
2023-06-11T00:32:02.804Z,27.03
2023-06-11T00:34:31.353Z,27.15
2023-06-11T00:37:00.977Z,27.14
2023-06-11T00:39:29.761Z,27.12
2023-06-11T00:41:58.866Z,26.91
2023-06-11T00:44:26.885Z,26.85
2023-06-11T00:46:55.414Z,26.85
2023-06-11T00:49:25.099Z,26.70
2023-06-11T00:51:56.116Z,27.11
2023-06-11T00:54:24.055Z,27.08
2023-06-11T00:56:52.594Z,27.09
2023-06-11T00:59:21.179Z,26.99
2023-06-11T01:01:57.686Z,26.94
2023-06-11T01:04:28.416Z,26.95
2023-06-11T01:07:01.933Z,26.77
2023-06-11T01:09:31.080Z,26.90
2023-06-11T01:12:00.040Z,26.79
2023-06-11T01:14:28.025Z,27.02
2023-06-11T01:17:05.932Z,27.07
2023-06-11T01:19:55.786Z,27.09
2023-06-11T01:22:32.142Z,27.08
2023-06-11T01:25:23.394Z,27.08
2023-06-11T01:28:09.156Z,27.06
2023-06-11T01:30:43.032Z,27.04
2023-06-11T01:33:12.031Z,27.04
2023-06-11T01:35:44.871Z,27.06
2023-06-11T01:38:16.649Z,27.06
2023-06-11T01:40:49.578Z,26.96
2023-06-11T01:43:17.928Z,26.94
2023-06-11T01:45:45.803Z,26.82
2023-06-11T01:48:16.811Z,27.02
2023-06-11T01:50:48.028Z,26.47
2023-06-11T01:53:17.323Z,27.03
2023-06-11T01:55:45.489Z,26.60
2023-06-11T01:58:13.588Z,26.98
2023-06-11T02:00:41.620Z,26.80
2023-06-11T02:03:10.011Z,27.06
2023-06-11T02:05:38.130Z,26.96
2023-06-11T02:08:06.187Z,27.07
2023-06-11T02:10:34.846Z,26.91
2023-06-11T02:13:03.257Z,27.05
2023-06-11T02:15:31.312Z,26.69
2023-06-11T02:17:59.179Z,26.96
2023-06-11T02:20:27.143Z,26.95
2023-06-11T02:22:55.245Z,26.68
2023-06-11T02:25:23.177Z,27.00
2023-06-11T02:27:52.336Z,26.74
2023-06-11T02:30:21.222Z,26.83
2023-06-11T02:32:49.153Z,26.70
2023-06-11T02:35:17.344Z,26.79
2023-06-11T02:37:45.094Z,26.83
2023-06-11T02:40:16.411Z,26.70
2023-06-11T02:42:44.109Z,27.00
2023-06-11T02:45:12.533Z,25.77
2023-06-11T02:47:40.729Z,26.98
2023-06-11T02:50:08.814Z,26.74
2023-06-11T02:52:36.620Z,27.00
2023-06-11T02:55:04.670Z,26.90
2023-06-11T02:57:32.501Z,26.88
2023-06-11T03:00:00.583Z,26.92
2023-06-11T03:02:29.786Z,26.86
2023-06-11T03:04:57.676Z,26.89
2023-06-11T03:07:25.669Z,26.71
2023-06-11T03:09:53.576Z,26.76
2023-06-11T03:12:21.895Z,26.98
2023-06-11T03:14:49.699Z,26.80
2023-06-11T03:17:18.633Z,26.94
2023-06-11T03:19:46.442Z,26.76
2023-06-11T03:22:14.796Z,26.61
2023-06-11T03:24:43.692Z,26.92
2023-06-11T03:27:22.351Z,26.98
2023-06-11T03:29:50.298Z,26.98
2023-06-11T03:32:19.151Z,26.99
2023-06-11T03:34:53.804Z,26.80
2023-06-11T03:37:24.050Z,26.98
2023-06-11T03:39:55.948Z,26.93
2023-06-11T03:42:24.983Z,26.96
2023-06-11T03:44:54.980Z,26.94
2023-06-11T03:47:24.750Z,26.96
2023-06-11T03:49:53.389Z,26.93
2023-06-11T03:52:22.182Z,26.68
2023-06-11T03:54:50.402Z,26.91
2023-06-11T03:57:20.012Z,26.81
2023-06-11T03:59:48.057Z,26.75
2023-06-11T04:02:16.094Z,26.85
2023-06-11T04:04:44.561Z,26.91
2023-06-11T04:07:13.011Z,26.76
2023-06-11T04:09:42.259Z,26.92
2023-06-11T04:12:10.313Z,26.82
2023-06-11T04:14:38.520Z,26.93
2023-06-11T04:17:06.814Z,26.53
2023-06-11T04:19:35.123Z,26.91
2023-06-11T04:22:03.056Z,26.64
2023-06-11T04:24:30.853Z,26.74
2023-06-11T04:26:59.412Z,26.91
2023-06-11T04:29:30.975Z,26.92
2023-06-11T04:32:04.486Z,26.57
2023-06-11T04:34:35.345Z,26.85
2023-06-11T04:37:03.639Z,26.52
2023-06-11T04:39:32.748Z,26.91
2023-06-11T04:42:06.785Z,26.76
2023-06-11T04:44:34.682Z,26.87
2023-06-11T04:47:06.702Z,26.78
2023-06-11T04:49:38.683Z,26.91
2023-06-11T04:52:06.995Z,26.91
2023-06-11T04:54:34.854Z,26.92
2023-06-11T04:57:05.365Z,26.43
2023-06-11T04:59:33.530Z,26.69
2023-06-11T05:02:04.926Z,26.66
2023-06-11T05:04:33.044Z,26.90
2023-06-11T05:07:02.265Z,26.64
2023-06-11T05:09:31.402Z,26.77
2023-06-11T05:11:59.901Z,26.91
2023-06-11T05:14:30.805Z,26.78
2023-06-11T05:17:01.501Z,26.64
2023-06-11T05:19:30.882Z,26.89
2023-06-11T05:22:00.978Z,26.78
2023-06-11T05:24:30.890Z,26.82
2023-06-11T05:27:02.176Z,26.93
2023-06-11T05:29:32.993Z,26.60
2023-06-11T05:32:02.317Z,26.83
2023-06-11T05:34:31.648Z,26.74
2023-06-11T05:37:02.475Z,26.61
2023-06-11T05:39:30.720Z,26.84
2023-06-11T05:41:59.235Z,26.71
2023-06-11T05:44:27.140Z,26.61
2023-06-11T05:46:55.303Z,26.85
2023-06-11T05:49:30.948Z,26.52
2023-06-11T05:52:00.153Z,26.66
2023-06-11T05:54:28.178Z,26.71
2023-06-11T05:56:58.012Z,26.78
2023-06-11T05:59:26.262Z,26.90
2023-06-11T06:01:54.556Z,26.75
2023-06-11T06:04:24.030Z,26.83
2023-06-11T06:06:52.312Z,26.81
2023-06-11T06:09:20.221Z,26.93
2023-06-11T06:11:48.760Z,26.93
2023-06-11T06:14:16.931Z,26.66
2023-06-11T06:16:47.360Z,26.77
2023-06-11T06:19:18.829Z,26.69
2023-06-11T06:21:48.137Z,26.55
2023-06-11T06:24:17.534Z,26.92
2023-06-11T06:26:46.492Z,26.91
2023-06-11T06:29:15.505Z,26.93
2023-06-11T06:31:46.584Z,26.88
2023-06-11T06:34:17.491Z,26.91
2023-06-11T06:36:45.721Z,26.60
2023-06-11T06:39:13.618Z,26.78
2023-06-11T06:41:41.773Z,26.90
2023-06-11T06:44:13.239Z,26.92
2023-06-11T06:46:41.200Z,26.74
2023-06-11T06:49:12.665Z,26.84
2023-06-11T06:51:40.596Z,26.82
2023-06-11T06:54:10.099Z,26.72
2023-06-11T06:56:41.345Z,26.78
2023-06-11T06:59:09.488Z,26.94
2023-06-11T07:01:40.351Z,26.27
2023-06-11T07:04:09.875Z,26.51
2023-06-11T07:06:37.914Z,25.85
2023-06-11T07:09:06.772Z,26.25
2023-06-11T07:11:35.272Z,26.43
2023-06-11T07:14:04.075Z,26.85
2023-06-11T07:16:32.749Z,26.75
2023-06-11T07:19:05.776Z,26.94
2023-06-11T07:21:36.732Z,26.87
2023-06-11T07:24:07.179Z,26.81
2023-06-11T07:26:35.883Z,26.76
2023-06-11T07:29:04.027Z,26.83
2023-06-11T07:31:33.095Z,26.85
2023-06-11T07:34:01.148Z,26.86
2023-06-11T07:36:29.321Z,26.89
2023-06-11T07:38:57.460Z,26.91
2023-06-11T07:41:25.591Z,26.72
2023-06-11T07:43:53.724Z,26.96
2023-06-11T07:46:23.541Z,26.90
2023-06-11T07:48:52.420Z,26.84
2023-06-11T07:51:21.653Z,26.80
2023-06-11T07:53:52.781Z,26.90
2023-06-11T07:56:20.871Z,26.77
2023-06-11T07:58:48.881Z,26.98
2023-06-11T08:01:17.176Z,26.89
2023-06-11T08:03:44.972Z,27.08
2023-06-11T08:06:15.402Z,27.10
2023-06-11T08:08:43.508Z,27.12
2023-06-11T08:11:11.459Z,27.14
2023-06-11T08:13:39.723Z,26.84
2023-06-11T08:16:11.705Z,27.02
2023-06-11T08:18:39.525Z,27.04
2023-06-11T08:21:07.405Z,26.83
2023-06-11T08:23:40.403Z,27.16
2023-06-11T08:26:08.470Z,27.15
2023-06-11T08:28:36.861Z,27.18
2023-06-11T08:31:04.746Z,27.17
2023-06-11T08:33:34.761Z,27.12
2023-06-11T08:36:04.594Z,26.90
2023-06-11T08:38:32.542Z,27.12
2023-06-11T08:41:01.660Z,27.13
2023-06-11T08:43:31.862Z,26.80
2023-06-11T08:45:59.703Z,27.06
2023-06-11T08:48:31.592Z,27.28
2023-06-11T08:51:01.122Z,27.13
2023-06-11T08:53:29.430Z,27.29
2023-06-11T08:55:57.449Z,27.27
2023-06-11T08:58:26.554Z,27.07
2023-06-11T09:00:54.504Z,27.31
2023-06-11T09:03:22.508Z,27.31
2023-06-11T09:05:52.457Z,27.11
2023-06-11T09:08:20.250Z,27.26
2023-06-11T09:10:52.739Z,27.03
2023-06-11T09:13:25.093Z,27.40
2023-06-11T09:15:55.124Z,26.97
2023-06-11T09:18:28.630Z,27.01
2023-06-11T09:20:59.147Z,27.17
2023-06-11T09:23:32.299Z,27.30
2023-06-11T09:26:01.740Z,27.50
2023-06-11T09:28:34.608Z,27.44
2023-06-11T09:31:04.533Z,27.34
2023-06-11T09:33:33.773Z,27.54
2023-06-11T09:36:02.064Z,27.58
2023-06-11T09:38:35.932Z,27.46
2023-06-11T09:41:07.800Z,27.58
2023-06-11T09:43:36.066Z,27.68
2023-06-11T09:46:06.162Z,27.49
2023-06-11T09:48:34.888Z,27.53
2023-06-11T09:51:04.861Z,27.73
2023-06-11T09:53:36.037Z,27.63
2023-06-11T09:56:11.048Z,27.62
2023-06-11T09:58:40.364Z,27.72
2023-06-11T10:01:09.372Z,27.51
2023-06-11T10:03:39.346Z,27.20
2023-06-11T10:06:13.341Z,27.74
2023-06-11T10:08:46.787Z,27.58
2023-06-11T10:11:17.236Z,27.74
2023-06-11T10:13:57.381Z,27.83
2023-06-11T10:16:26.558Z,27.87
2023-06-11T10:19:06.534Z,27.96
2023-06-11T10:21:37.987Z,27.96
2023-06-11T10:24:06.417Z,27.78
2023-06-11T10:26:36.653Z,27.75
2023-06-11T10:29:11.604Z,28.04
2023-06-11T10:31:44.010Z,27.83
2023-06-11T10:34:16.301Z,27.80
2023-06-11T10:36:44.475Z,27.97
2023-06-11T10:39:24.178Z,28.05
2023-06-11T10:42:03.091Z,28.09
2023-06-11T10:44:31.347Z,28.07
2023-06-11T10:47:02.461Z,28.06
2023-06-11T10:49:33.435Z,28.00
2023-06-11T10:52:03.911Z,27.69
2023-06-11T10:54:36.739Z,27.93
2023-06-11T10:57:07.354Z,27.68
2023-06-11T10:59:36.105Z,28.08
2023-06-11T11:02:04.174Z,27.80
2023-06-11T11:04:32.194Z,28.09
2023-06-11T11:07:09.954Z,27.82
2023-06-11T11:09:38.102Z,27.88
2023-06-11T11:12:07.476Z,28.02
2023-06-11T11:14:35.933Z,28.11
2023-06-11T11:17:04.260Z,27.82
2023-06-11T11:19:32.397Z,28.04
2023-06-11T11:22:00.283Z,27.93
2023-06-11T11:24:28.045Z,28.10
2023-06-11T11:26:56.914Z,28.15
2023-06-11T11:29:25.386Z,28.20
2023-06-11T11:31:53.389Z,28.22
2023-06-11T11:34:21.300Z,28.10
2023-06-11T11:36:49.092Z,28.01
2023-06-11T11:39:16.950Z,28.20
2023-06-11T11:41:49.132Z,27.98
2023-06-11T11:44:18.337Z,28.12
2023-06-11T11:46:47.515Z,27.96
2023-06-11T11:49:15.541Z,27.82
2023-06-11T11:51:53.870Z,28.18
2023-06-11T11:54:21.939Z,28.17
2023-06-11T11:56:58.622Z,28.21
2023-06-11T11:59:28.997Z,28.21
2023-06-11T12:01:58.164Z,27.90
2023-06-11T12:04:37.431Z,28.15
2023-06-11T12:07:24.324Z,28.18
2023-06-11T12:09:52.204Z,27.84
2023-06-11T12:12:22.912Z,27.99
2023-06-11T12:14:53.952Z,28.20
2023-06-11T12:17:22.089Z,28.18
2023-06-11T12:19:50.061Z,28.35
2023-06-11T12:22:17.965Z,28.29
2023-06-11T12:24:46.023Z,28.24
2023-06-11T12:27:14.219Z,28.19
2023-06-11T12:29:43.109Z,28.23
2023-06-11T12:32:15.138Z,28.25
2023-06-11T12:34:43.466Z,28.20
2023-06-11T12:37:11.900Z,28.09
2023-06-11T12:39:44.678Z,28.35
2023-06-11T12:42:12.708Z,28.46
2023-06-11T12:44:42.715Z,28.48
2023-06-11T12:47:11.082Z,28.42
2023-06-11T12:49:38.934Z,28.47
2023-06-11T12:52:08.646Z,28.52
2023-06-11T12:54:36.482Z,28.53
2023-06-11T12:57:05.183Z,28.52
2023-06-11T12:59:33.491Z,28.32
2023-06-11T13:02:01.386Z,28.38
2023-06-11T13:04:29.234Z,28.55
2023-06-11T13:06:57.443Z,28.53
2023-06-11T13:09:26.612Z,28.29
2023-06-11T13:11:54.712Z,28.47
2023-06-11T13:14:22.762Z,28.35
2023-06-11T13:16:52.851Z,28.55
2023-06-11T13:19:20.765Z,28.59
2023-06-11T13:21:48.536Z,28.47
2023-06-11T13:24:18.260Z,28.55
2023-06-11T13:26:46.210Z,28.34
2023-06-11T13:29:14.401Z,28.34
2023-06-11T13:31:42.324Z,28.58
2023-06-11T13:34:10.592Z,28.48
2023-06-11T13:36:38.735Z,28.30
2023-06-11T13:39:08.288Z,28.43
2023-06-11T13:41:36.066Z,28.58
2023-06-11T13:44:05.935Z,28.59
2023-06-11T13:46:36.472Z,28.38
2023-06-11T13:49:04.337Z,28.68
2023-06-11T13:51:33.609Z,28.36
2023-06-11T13:54:01.443Z,28.70
2023-06-11T13:56:29.825Z,28.42
2023-06-11T13:58:57.716Z,28.31
2023-06-11T14:01:25.649Z,28.46
2023-06-11T14:03:53.604Z,28.68
2023-06-11T14:06:21.608Z,28.55
2023-06-11T14:08:49.413Z,28.61
2023-06-11T14:11:18.448Z,28.70
2023-06-11T14:13:46.568Z,28.66
2023-06-11T14:16:15.424Z,28.68
2023-06-11T14:18:43.551Z,28.67
2023-06-11T14:21:11.338Z,28.76
2023-06-11T14:23:39.182Z,28.65
2023-06-11T14:26:07.605Z,28.35
2023-06-11T14:28:35.758Z,28.47
2023-06-11T14:31:06.091Z,28.67
2023-06-11T14:33:33.937Z,28.05
2023-06-11T14:36:06.223Z,28.75
2023-06-11T14:38:34.607Z,28.78
2023-06-11T14:41:02.601Z,28.80
2023-06-11T14:43:34.814Z,28.75
2023-06-11T14:46:02.723Z,28.69
2023-06-11T14:48:30.681Z,28.71
2023-06-11T14:50:58.549Z,28.58
2023-06-11T14:53:26.275Z,28.64
2023-06-11T14:55:54.535Z,28.80
2023-06-11T14:58:22.434Z,28.70
2023-06-11T15:00:51.396Z,28.87
2023-06-11T15:03:19.321Z,28.71
2023-06-11T15:05:47.370Z,28.87
2023-06-11T15:08:15.173Z,28.65
2023-06-11T15:10:43.118Z,28.79
2023-06-11T15:13:10.802Z,28.65
2023-06-11T15:15:38.698Z,28.86
2023-06-11T15:18:08.982Z,28.73
2023-06-11T15:20:37.028Z,28.66
2023-06-11T15:23:07.124Z,28.17
2023-06-11T15:25:37.196Z,28.53
2023-06-11T15:28:05.210Z,28.78
2023-06-11T15:30:33.089Z,28.65
2023-06-11T15:33:00.805Z,28.54
2023-06-11T15:35:28.721Z,28.43
2023-06-11T15:37:56.657Z,28.62
2023-06-11T15:40:24.692Z,28.43
2023-06-11T15:42:52.648Z,28.76
2023-06-11T15:45:20.901Z,28.73
2023-06-11T15:47:48.969Z,28.74
2023-06-11T15:50:17.127Z,28.71
2023-06-11T15:52:46.232Z,28.58
2023-06-11T15:55:14.791Z,28.76
2023-06-11T15:57:44.570Z,28.73
2023-06-11T16:00:13.309Z,28.90
2023-06-11T16:02:41.498Z,28.80
2023-06-11T16:05:09.747Z,28.60
2023-06-11T16:07:37.781Z,28.65
2023-06-11T16:10:06.373Z,28.76
2023-06-11T16:12:34.352Z,28.72
2023-06-11T16:15:02.235Z,28.64
2023-06-11T16:17:30.481Z,28.52
2023-06-11T16:19:58.218Z,28.69
2023-06-11T16:22:27.727Z,28.68
2023-06-11T16:24:55.957Z,28.67
2023-06-11T16:27:24.094Z,28.50
2023-06-11T16:29:53.041Z,28.65
2023-06-11T16:32:22.715Z,28.54
2023-06-11T16:34:50.617Z,28.64
2023-06-11T16:37:18.592Z,28.30
2023-06-11T16:39:46.518Z,28.51
2023-06-11T16:42:14.711Z,28.18
2023-06-11T16:44:42.553Z,28.51
2023-06-11T16:47:11.008Z,28.55
2023-06-11T16:49:38.894Z,28.31
2023-06-11T16:52:07.023Z,28.36
2023-06-11T16:54:34.969Z,28.37
2023-06-11T16:57:02.844Z,28.42
2023-06-11T16:59:30.787Z,28.66
2023-06-11T17:01:58.582Z,28.35
2023-06-11T17:04:26.667Z,28.61
2023-06-11T17:06:54.665Z,28.75
2023-06-11T17:09:24.227Z,28.68
2023-06-11T17:11:52.128Z,28.69
2023-06-11T17:14:20.066Z,28.56
2023-06-11T17:16:47.979Z,28.61
2023-06-11T17:19:17.051Z,28.59
2023-06-11T17:21:44.888Z,28.63
2023-06-11T17:24:14.316Z,28.62
2023-06-11T17:26:42.848Z,28.30
2023-06-11T17:29:11.423Z,28.46
2023-06-11T17:31:39.500Z,28.19
2023-06-11T17:34:07.375Z,28.49
2023-06-11T17:36:35.055Z,28.37
2023-06-11T17:39:02.825Z,28.25
2023-06-11T17:41:30.898Z,28.49
2023-06-11T17:43:58.800Z,28.45
2023-06-11T17:46:26.701Z,28.21
2023-06-11T17:48:54.777Z,28.36
2023-06-11T17:51:22.659Z,28.31
2023-06-11T17:53:51.037Z,28.12
2023-06-11T17:56:19.053Z,28.32
2023-06-11T17:58:47.684Z,28.46
2023-06-11T18:01:16.147Z,28.43
2023-06-11T18:03:44.002Z,28.27
2023-06-11T18:06:13.668Z,28.48
2023-06-11T18:08:42.292Z,28.45
2023-06-11T18:11:10.710Z,28.42
2023-06-11T18:13:38.585Z,28.28
2023-06-11T18:16:06.397Z,28.42
2023-06-11T18:18:34.322Z,28.40
2023-06-11T18:21:02.152Z,28.41
2023-06-11T18:23:30.142Z,28.11
2023-06-11T18:25:58.078Z,28.31
2023-06-11T18:28:26.816Z,28.39
2023-06-11T18:30:58.878Z,28.30
2023-06-11T18:33:28.241Z,28.40
2023-06-11T18:35:56.069Z,28.14
2023-06-11T18:38:24.048Z,28.07
2023-06-11T18:40:51.843Z,28.12
2023-06-11T18:43:19.694Z,28.40
2023-06-11T18:45:47.980Z,28.17
2023-06-11T18:48:15.879Z,28.31
2023-06-11T18:50:43.852Z,28.30
2023-06-11T18:53:11.941Z,28.23
2023-06-11T18:55:41.603Z,28.31
2023-06-11T18:58:09.472Z,28.35
2023-06-11T19:00:40.828Z,28.18
2023-06-11T19:03:09.500Z,28.25
2023-06-11T19:05:37.499Z,28.21
2023-06-11T19:08:07.462Z,28.09
2023-06-11T19:10:35.774Z,27.91
2023-06-11T19:13:05.276Z,28.23
2023-06-11T19:15:34.250Z,28.04
2023-06-11T19:18:04.984Z,28.08
2023-06-11T19:20:33.587Z,28.15
2023-06-11T19:23:01.360Z,27.97
2023-06-11T19:25:31.012Z,28.19
2023-06-11T19:27:58.978Z,27.95
2023-06-11T19:30:29.380Z,27.90
2023-06-11T19:32:58.530Z,27.36
2023-06-11T19:35:26.510Z,28.01
2023-06-11T19:37:54.791Z,28.06
2023-06-11T19:40:22.694Z,27.85
2023-06-11T19:42:51.653Z,28.04
2023-06-11T19:45:21.735Z,27.96
2023-06-11T19:47:51.621Z,28.10
2023-06-11T19:50:24.046Z,28.01
2023-06-11T19:52:51.888Z,28.10
2023-06-11T19:55:19.740Z,27.85
2023-06-11T19:57:47.622Z,28.06
2023-06-11T20:00:16.545Z,27.90
2023-06-11T20:02:44.558Z,27.79
2023-06-11T20:05:12.467Z,28.00
2023-06-11T20:07:40.808Z,28.06
2023-06-11T20:10:09.141Z,28.09
2023-06-11T20:12:37.122Z,28.09
2023-06-11T20:15:05.707Z,27.95
2023-06-11T20:17:33.681Z,28.07
2023-06-11T20:20:01.792Z,27.96
2023-06-11T20:22:29.583Z,27.67
2023-06-11T20:24:57.477Z,27.84
2023-06-11T20:27:25.551Z,27.95
2023-06-11T20:29:53.412Z,27.71
2023-06-11T20:32:22.488Z,27.88
2023-06-11T20:34:50.591Z,27.83
2023-06-11T20:37:21.188Z,27.63
2023-06-11T20:39:49.077Z,27.84
2023-06-11T20:42:18.535Z,27.74
2023-06-11T20:44:47.775Z,27.88
2023-06-11T20:47:17.099Z,27.83
2023-06-11T20:49:45.036Z,27.75
2023-06-11T20:52:12.918Z,27.59
2023-06-11T20:54:41.236Z,27.81
2023-06-11T20:57:09.668Z,27.76
2023-06-11T20:59:37.489Z,27.74
2023-06-11T21:02:05.588Z,27.90
2023-06-11T21:04:34.085Z,27.81
2023-06-11T21:07:04.137Z,27.55
2023-06-11T21:09:32.172Z,27.76
2023-06-11T21:12:01.731Z,27.81
2023-06-11T21:14:29.613Z,27.87
2023-06-11T21:16:57.472Z,27.87
2023-06-11T21:19:25.711Z,27.70
2023-06-11T21:21:53.766Z,27.73
2023-06-11T21:24:21.759Z,27.72
2023-06-11T21:26:49.738Z,27.64
2023-06-11T21:29:17.694Z,27.74
2023-06-11T21:31:45.658Z,27.82
2023-06-11T21:34:13.594Z,27.72
2023-06-11T21:36:41.574Z,27.70
2023-06-11T21:39:10.727Z,27.53
2023-06-11T21:41:38.812Z,27.57
2023-06-11T21:44:06.748Z,27.70
2023-06-11T21:46:34.786Z,27.53
2023-06-11T21:49:03.345Z,27.81
2023-06-11T21:51:31.463Z,27.76
2023-06-11T21:53:59.401Z,27.77
2023-06-11T21:56:28.765Z,27.81
2023-06-11T21:58:56.632Z,27.79
2023-06-11T22:01:24.840Z,27.57
2023-06-11T22:03:53.528Z,27.80
2023-06-11T22:06:21.822Z,27.83
2023-06-11T22:08:49.747Z,27.54
2023-06-11T22:11:18.330Z,27.81
2023-06-11T22:13:48.093Z,27.69
2023-06-11T22:16:17.724Z,27.81
2023-06-11T22:18:45.747Z,27.72
2023-06-11T22:21:18.472Z,27.68
2023-06-11T22:23:51.327Z,27.69
2023-06-11T22:26:21.562Z,27.67
2023-06-11T22:28:49.380Z,27.79
2023-06-11T22:31:18.064Z,27.79
2023-06-11T22:33:45.875Z,27.74
2023-06-11T22:36:13.668Z,27.59
2023-06-11T22:38:41.815Z,27.79
2023-06-11T22:41:10.511Z,27.76
2023-06-11T22:43:38.348Z,27.45
2023-06-11T22:46:06.466Z,27.71
2023-06-11T22:48:34.528Z,27.72
2023-06-11T22:51:02.566Z,27.44
2023-06-11T22:53:30.887Z,27.69
2023-06-11T22:55:58.922Z,27.63
2023-06-11T22:58:28.113Z,27.78
2023-06-11T23:00:58.470Z,27.69
2023-06-11T23:03:26.849Z,27.64
2023-06-11T23:05:55.133Z,27.81
2023-06-11T23:08:23.740Z,27.82
2023-06-11T23:10:51.593Z,27.78
2023-06-11T23:13:19.485Z,27.82
2023-06-11T23:15:47.494Z,27.78
2023-06-11T23:18:18.263Z,27.81
2023-06-11T23:20:47.950Z,27.81
2023-06-11T23:23:17.872Z,27.81
2023-06-11T23:25:50.912Z,27.66
2023-06-11T23:28:19.888Z,27.62
2023-06-11T23:30:48.569Z,27.71
2023-06-11T23:33:18.120Z,27.79
2023-06-11T23:35:45.994Z,27.52
2023-06-11T23:38:14.017Z,27.78
2023-06-11T23:40:42.188Z,27.77
2023-06-11T23:43:11.207Z,27.45
2023-06-11T23:45:39.058Z,27.62
2023-06-11T23:48:08.481Z,27.79
2023-06-11T23:50:39.701Z,27.71
2023-06-11T23:53:09.154Z,27.50
2023-06-11T23:55:36.893Z,27.45
2023-06-11T23:58:21.378Z,27.80
